sensor_id;sensor_type;location;lat;lon;timestamp;temperature;humidity
9965;DHT22;5023;53.554;9.964;2022-07-11T00:04:06;14.60;99.90
9965;DHT22;5023;53.554;9.964;2022-07-11T00:09:08;14.50;99.90
9965;DHT22;5023;53.554;9.964;2022-07-11T00:14:12;14.50;99.90
9965;DHT22;5023;53.554;9.964;2022-07-11T00:19:14;14.50;99.90
9965;DHT22;5023;53.554;9.964;2022-07-11T00:24:17;14.50;99.90
9965;DHT22;5023;53.554;9.964;2022-07-11T00:29:21;14.50;99.90
9965;DHT22;5023;53.554;9.964;2022-07-11T00:34:24;14.50;99.90
9965;DHT22;5023;53.554;9.964;2022-07-11T00:39:26;14.60;99.90
9965;DHT22;5023;53.554;9.964;2022-07-11T00:44:29;14.50;99.90
9965;DHT22;5023;53.554;9.964;2022-07-11T00:49:33;14.50;99.90
9965;DHT22;5023;53.554;9.964;2022-07-11T00:54:36;14.40;99.90
9965;DHT22;5023;53.554;9.964;2022-07-11T00:59:40;14.40;99.90
9965;DHT22;5023;53.554;9.964;2022-07-11T01:04:42;14.50;99.90
9965;DHT22;5023;53.554;9.964;2022-07-11T01:09:44;14.50;99.90
9965;DHT22;5023;53.554;9.964;2022-07-11T01:14:53;14.40;99.90
9965;DHT22;5023;53.554;9.964;2022-07-11T01:19:58;14.40;99.90
9965;DHT22;5023;53.554;9.964;2022-07-11T01:25:03;14.40;99.90
9965;DHT22;5023;53.554;9.964;2022-07-11T01:30:06;14.50;99.90
9965;DHT22;5023;53.554;9.964;2022-07-11T01:35:09;14.50;99.90
9965;DHT22;5023;53.554;9.964;2022-07-11T01:40:12;14.50;99.90
9965;DHT22;5023;53.554;9.964;2022-07-11T01:45:15;14.50;99.90
9965;DHT22;5023;53.554;9.964;2022-07-11T01:50:17;14.50;99.90
9965;DHT22;5023;53.554;9.964;2022-07-11T01:55:23;14.40;99.90
9965;DHT22;5023;53.554;9.964;2022-07-11T02:00:25;14.40;99.90
9965;DHT22;5023;53.554;9.964;2022-07-11T02:05:27;14.30;99.90
9965;DHT22;5023;53.554;9.964;2022-07-11T02:10:31;14.30;99.90
9965;DHT22;5023;53.554;9.964;2022-07-11T02:15:33;14.30;99.90
9965;DHT22;5023;53.554;9.964;2022-07-11T02:20:35;14.30;99.90
9965;DHT22;5023;53.554;9.964;2022-07-11T02:25:39;14.30;99.90
9965;DHT22;5023;53.554;9.964;2022-07-11T02:30:43;14.40;99.90
9965;DHT22;5023;53.554;9.964;2022-07-11T02:35:46;14.30;99.90
9965;DHT22;5023;53.554;9.964;2022-07-11T02:40:50;14.20;99.90
9965;DHT22;5023;53.554;9.964;2022-07-11T02:45:52;14.20;99.90
9965;DHT22;5023;53.554;9.964;2022-07-11T02:50:54;14.10;99.90
9965;DHT22;5023;53.554;9.964;2022-07-11T02:55:58;14.10;99.90
9965;DHT22;5023;53.554;9.964;2022-07-11T03:01:00;14.00;99.90
9965;DHT22;5023;53.554;9.964;2022-07-11T03:06:04;14.10;99.90
9965;DHT22;5023;53.554;9.964;2022-07-11T03:11:08;14.00;99.90
9965;DHT22;5023;53.554;9.964;2022-07-11T03:16:10;14.10;99.90
9965;DHT22;5023;53.554;9.964;2022-07-11T03:21:12;14.10;99.90
9965;DHT22;5023;53.554;9.964;2022-07-11T03:26:16;14.10;99.90
9965;DHT22;5023;53.554;9.964;2022-07-11T03:31:18;14.20;99.90
9965;DHT22;5023;53.554;9.964;2022-07-11T03:36:22;14.10;99.90
9965;DHT22;5023;53.554;9.964;2022-07-11T03:41:25;14.20;99.90
9965;DHT22;5023;53.554;9.964;2022-07-11T03:46:28;14.20;99.90
9965;DHT22;5023;53.554;9.964;2022-07-11T03:51:30;14.20;99.90
9965;DHT22;5023;53.554;9.964;2022-07-11T03:56:34;14.10;99.90
9965;DHT22;5023;53.554;9.964;2022-07-11T04:01:36;14.20;99.90
9965;DHT22;5023;53.554;9.964;2022-07-11T04:06:38;14.20;99.90
9965;DHT22;5023;53.554;9.964;2022-07-11T04:11:44;14.20;99.90
9965;DHT22;5023;53.554;9.964;2022-07-11T04:16:46;14.20;99.90
9965;DHT22;5023;53.554;9.964;2022-07-11T04:21:48;14.20;99.90
9965;DHT22;5023;53.554;9.964;2022-07-11T04:26:52;14.20;99.90
9965;DHT22;5023;53.554;9.964;2022-07-11T04:31:57;14.20;99.90
9965;DHT22;5023;53.554;9.964;2022-07-11T04:36:59;14.30;99.90
9965;DHT22;5023;53.554;9.964;2022-07-11T04:42:03;14.40;99.90
9965;DHT22;5023;53.554;9.964;2022-07-11T04:47:07;14.40;99.90
9965;DHT22;5023;53.554;9.964;2022-07-11T04:52:09;14.40;99.90
9965;DHT22;5023;53.554;9.964;2022-07-11T04:57:12;14.40;99.90
9965;DHT22;5023;53.554;9.964;2022-07-11T05:02:15;14.50;99.90
9965;DHT22;5023;53.554;9.964;2022-07-11T05:07:18;14.50;99.90
9965;DHT22;5023;53.554;9.964;2022-07-11T05:12:22;14.50;99.90
9965;DHT22;5023;53.554;9.964;2022-07-11T05:17:24;14.70;99.90
9965;DHT22;5023;53.554;9.964;2022-07-11T05:22:27;14.70;99.90
9965;DHT22;5023;53.554;9.964;2022-07-11T05:27:30;14.70;99.90
9965;DHT22;5023;53.554;9.964;2022-07-11T05:32:33;14.70;99.90
9965;DHT22;5023;53.554;9.964;2022-07-11T05:37:35;14.70;99.90
9965;DHT22;5023;53.554;9.964;2022-07-11T05:42:39;14.80;99.90
9965;DHT22;5023;53.554;9.964;2022-07-11T05:47:44;14.80;99.90
9965;DHT22;5023;53.554;9.964;2022-07-11T05:52:46;14.80;99.90
9965;DHT22;5023;53.554;9.964;2022-07-11T05:57:50;14.90;99.90
9965;DHT22;5023;53.554;9.964;2022-07-11T06:02:56;15.00;99.90
9965;DHT22;5023;53.554;9.964;2022-07-11T06:07:58;15.10;99.90
9965;DHT22;5023;53.554;9.964;2022-07-11T06:13:19;15.30;99.90
9965;DHT22;5023;53.554;9.964;2022-07-11T06:18:21;15.40;99.90
9965;DHT22;5023;53.554;9.964;2022-07-11T06:23:24;15.40;99.90
9965;DHT22;5023;53.554;9.964;2022-07-11T06:28:27;15.50;99.90
9965;DHT22;5023;53.554;9.964;2022-07-11T06:33:30;15.70;99.90
9965;DHT22;5023;53.554;9.964;2022-07-11T06:38:34;15.70;99.90
9965;DHT22;5023;53.554;9.964;2022-07-11T06:43:38;15.70;99.90
9965;DHT22;5023;53.554;9.964;2022-07-11T06:48:40;15.80;99.90
9965;DHT22;5023;53.554;9.964;2022-07-11T06:53:42;15.90;99.90
9965;DHT22;5023;53.554;9.964;2022-07-11T06:58:46;16.10;99.90
9965;DHT22;5023;53.554;9.964;2022-07-11T07:03:49;16.40;99.90
9965;DHT22;5023;53.554;9.964;2022-07-11T07:08:52;16.60;99.90
9965;DHT22;5023;53.554;9.964;2022-07-11T07:13:55;16.80;99.90
9965;DHT22;5023;53.554;9.964;2022-07-11T07:18:58;17.10;99.90
9965;DHT22;5023;53.554;9.964;2022-07-11T07:24:00;17.10;99.90
9965;DHT22;5023;53.554;9.964;2022-07-11T07:29:05;17.10;99.90
9965;DHT22;5023;53.554;9.964;2022-07-11T07:34:25;17.20;99.90
9965;DHT22;5023;53.554;9.964;2022-07-11T07:39:27;17.20;99.90
9965;DHT22;5023;53.554;9.964;2022-07-11T07:56:12;17.60;99.90
9965;DHT22;5023;53.554;9.964;2022-07-11T08:01:15;17.60;99.90
9965;DHT22;5023;53.554;9.964;2022-07-11T08:06:45;17.90;99.90
9965;DHT22;5023;53.554;9.964;2022-07-11T08:12:01;18.00;99.90
9965;DHT22;5023;53.554;9.964;2022-07-11T08:17:06;18.20;99.90
9965;DHT22;5023;53.554;9.964;2022-07-11T08:22:26;18.50;99.90
9965;DHT22;5023;53.554;9.964;2022-07-11T08:27:43;18.30;99.90
9965;DHT22;5023;53.554;9.964;2022-07-11T08:33:14;18.60;99.90
9965;DHT22;5023;53.554;9.964;2022-07-11T08:38:43;18.70;99.90
9965;DHT22;5023;53.554;9.964;2022-07-11T08:43:48;18.80;99.90
9965;DHT22;5023;53.554;9.964;2022-07-11T08:48:56;18.80;99.90
9965;DHT22;5023;53.554;9.964;2022-07-11T08:54:25;18.70;99.90
9965;DHT22;5023;53.554;9.964;2022-07-11T09:00:16;18.60;99.90
9965;DHT22;5023;53.554;9.964;2022-07-11T09:05:38;18.90;99.90
9965;DHT22;5023;53.554;9.964;2022-07-11T09:10:42;19.20;99.90
9965;DHT22;5023;53.554;9.964;2022-07-11T09:16:02;19.30;99.90
9965;DHT22;5023;53.554;9.964;2022-07-11T09:21:09;19.40;99.90
9965;DHT22;5023;53.554;9.964;2022-07-11T09:26:34;19.60;99.90
9965;DHT22;5023;53.554;9.964;2022-07-11T09:31:40;19.50;99.90
9965;DHT22;5023;53.554;9.964;2022-07-11T09:36:47;19.80;99.90
9965;DHT22;5023;53.554;9.964;2022-07-11T09:41:53;19.90;99.90
9965;DHT22;5023;53.554;9.964;2022-07-11T09:46:57;20.00;99.90
9965;DHT22;5023;53.554;9.964;2022-07-11T09:52:09;20.00;99.90
9965;DHT22;5023;53.554;9.964;2022-07-11T10:03:29;20.00;99.90
9965;DHT22;5023;53.554;9.964;2022-07-11T10:08:32;20.20;99.90
9965;DHT22;5023;53.554;9.964;2022-07-11T10:13:38;20.00;99.90
9965;DHT22;5023;53.554;9.964;2022-07-11T10:24:34;20.30;99.90
9965;DHT22;5023;53.554;9.964;2022-07-11T10:29:49;20.30;99.90
9965;DHT22;5023;53.554;9.964;2022-07-11T10:35:09;20.50;99.90
9965;DHT22;5023;53.554;9.964;2022-07-11T10:40:43;20.50;99.90
9965;DHT22;5023;53.554;9.964;2022-07-11T10:45:54;20.40;99.90
9965;DHT22;5023;53.554;9.964;2022-07-11T10:51:20;20.50;99.90
9965;DHT22;5023;53.554;9.964;2022-07-11T10:57:16;20.50;99.90
9965;DHT22;5023;53.554;9.964;2022-07-11T11:02:22;20.60;99.90
9965;DHT22;5023;53.554;9.964;2022-07-11T11:19:54;20.60;99.90
9965;DHT22;5023;53.554;9.964;2022-07-11T11:25:22;20.70;99.90
9965;DHT22;5023;53.554;9.964;2022-07-11T11:30:29;20.70;99.90
9965;DHT22;5023;53.554;9.964;2022-07-11T11:35:37;20.70;99.90
9965;DHT22;5023;53.554;9.964;2022-07-11T11:40:47;20.80;99.90
9965;DHT22;5023;53.554;9.964;2022-07-11T11:46:08;20.80;99.90
9965;DHT22;5023;53.554;9.964;2022-07-11T11:51:14;20.70;99.90
9965;DHT22;5023;53.554;9.964;2022-07-11T11:57:06;21.50;99.90
9965;DHT22;5023;53.554;9.964;2022-07-11T12:02:30;22.40;99.90
9965;DHT22;5023;53.554;9.964;2022-07-11T12:13:33;21.90;99.90
9965;DHT22;5023;53.554;9.964;2022-07-11T12:18:36;22.50;99.90
9965;DHT22;5023;53.554;9.964;2022-07-11T12:23:51;22.80;99.90
9965;DHT22;5023;53.554;9.964;2022-07-11T12:29:17;22.70;99.90
9965;DHT22;5023;53.554;9.964;2022-07-11T12:34:24;22.90;99.90
9965;DHT22;5023;53.554;9.964;2022-07-11T12:39:30;23.30;99.90
9965;DHT22;5023;53.554;9.964;2022-07-11T12:44:59;23.60;99.90
9965;DHT22;5023;53.554;9.964;2022-07-11T12:50:11;23.20;99.90
9965;DHT22;5023;53.554;9.964;2022-07-11T12:55:22;23.90;99.90
9965;DHT22;5023;53.554;9.964;2022-07-11T13:06:42;23.10;99.90
9965;DHT22;5023;53.554;9.964;2022-07-11T13:12:02;23.90;99.90
9965;DHT22;5023;53.554;9.964;2022-07-11T13:17:21;24.70;94.40
9965;DHT22;5023;53.554;9.964;2022-07-11T13:23:00;24.60;92.30
9965;DHT22;5023;53.554;9.964;2022-07-11T13:28:04;24.00;92.00
9965;DHT22;5023;53.554;9.964;2022-07-11T13:33:11;24.60;91.80
9965;DHT22;5023;53.554;9.964;2022-07-11T13:38:32;25.60;89.30
9965;DHT22;5023;53.554;9.964;2022-07-11T13:44:08;25.50;84.80
9965;DHT22;5023;53.554;9.964;2022-07-11T13:49:12;24.50;89.10
9965;DHT22;5023;53.554;9.964;2022-07-11T13:54:16;24.50;91.70
9965;DHT22;5023;53.554;9.964;2022-07-11T13:59:38;24.20;94.40
9965;DHT22;5023;53.554;9.964;2022-07-11T14:04:50;25.40;94.10
9965;DHT22;5023;53.554;9.964;2022-07-11T14:10:09;26.60;88.20
9965;DHT22;5023;53.554;9.964;2022-07-11T14:15:26;27.00;85.30
9965;DHT22;5023;53.554;9.964;2022-07-11T14:20:30;27.00;82.90
9965;DHT22;5023;53.554;9.964;2022-07-11T14:25:33;27.00;84.60
9965;DHT22;5023;53.554;9.964;2022-07-11T14:30:40;26.50;79.90
9965;DHT22;5023;53.554;9.964;2022-07-11T14:36:16;26.40;80.50
9965;DHT22;5023;53.554;9.964;2022-07-11T14:41:32;26.10;83.00
9965;DHT22;5023;53.554;9.964;2022-07-11T14:46:35;25.40;82.60
9965;DHT22;5023;53.554;9.964;2022-07-11T14:51:39;25.30;83.20
9965;DHT22;5023;53.554;9.964;2022-07-11T14:56:41;25.10;86.90
9965;DHT22;5023;53.554;9.964;2022-07-11T15:02:10;25.50;86.40
9965;DHT22;5023;53.554;9.964;2022-07-11T15:07:16;25.50;87.30
9965;DHT22;5023;53.554;9.964;2022-07-11T15:12:38;25.80;86.80
9965;DHT22;5023;53.554;9.964;2022-07-11T15:17:52;25.20;87.90
9965;DHT22;5023;53.554;9.964;2022-07-11T15:23:38;25.30;89.90
9965;DHT22;5023;53.554;9.964;2022-07-11T15:29:16;25.90;86.60
9965;DHT22;5023;53.554;9.964;2022-07-11T15:34:19;25.80;85.30
9965;DHT22;5023;53.554;9.964;2022-07-11T15:39:37;25.10;87.40
9965;DHT22;5023;53.554;9.964;2022-07-11T15:44:42;24.90;90.00
9965;DHT22;5023;53.554;9.964;2022-07-11T15:50:28;24.80;90.30
9965;DHT22;5023;53.554;9.964;2022-07-11T15:55:46;24.50;92.00
9965;DHT22;5023;53.554;9.964;2022-07-11T16:01:24;23.80;95.10
9965;DHT22;5023;53.554;9.964;2022-07-11T16:06:36;23.70;97.40
9965;DHT22;5023;53.554;9.964;2022-07-11T16:12:02;23.50;98.20
9965;DHT22;5023;53.554;9.964;2022-07-11T16:17:04;23.30;99.90
9965;DHT22;5023;53.554;9.964;2022-07-11T16:22:21;22.90;99.90
9965;DHT22;5023;53.554;9.964;2022-07-11T16:33:35;22.80;99.90
9965;DHT22;5023;53.554;9.964;2022-07-11T16:39:12;22.60;99.90
9965;DHT22;5023;53.554;9.964;2022-07-11T16:44:47;22.70;99.90
9965;DHT22;5023;53.554;9.964;2022-07-11T16:50:20;22.80;99.90
9965;DHT22;5023;53.554;9.964;2022-07-11T16:55:34;22.80;99.90
9965;DHT22;5023;53.554;9.964;2022-07-11T17:00:57;22.60;99.90
9965;DHT22;5023;53.554;9.964;2022-07-11T17:25:19;22.00;99.90
9965;DHT22;5023;53.554;9.964;2022-07-11T17:30:59;22.00;99.90
9965;DHT22;5023;53.554;9.964;2022-07-11T17:54:13;21.40;99.90
9965;DHT22;5023;53.554;9.964;2022-07-11T18:11:21;21.00;99.90
9965;DHT22;5023;53.554;9.964;2022-07-11T18:17:03;20.90;99.90
9965;DHT22;5023;53.554;9.964;2022-07-11T18:22:20;20.70;99.90
9965;DHT22;5023;53.554;9.964;2022-07-11T18:28:29;20.60;99.90
9965;DHT22;5023;53.554;9.964;2022-07-11T18:33:36;20.50;99.90
9965;DHT22;5023;53.554;9.964;2022-07-11T19:03:00;19.90;99.90
9965;DHT22;5023;53.554;9.964;2022-07-11T19:08:36;19.80;99.90
9965;DHT22;5023;53.554;9.964;2022-07-11T19:25:40;19.10;99.90
9965;DHT22;5023;53.554;9.964;2022-07-11T19:31:08;19.00;99.90
9965;DHT22;5023;53.554;9.964;2022-07-11T19:36:42;19.10;99.90
9965;DHT22;5023;53.554;9.964;2022-07-11T19:42:25;19.00;99.90
9965;DHT22;5023;53.554;9.964;2022-07-11T19:47:32;18.90;99.90
9965;DHT22;5023;53.554;9.964;2022-07-11T19:53:17;18.80;99.90
9965;DHT22;5023;53.554;9.964;2022-07-11T19:58:37;18.80;99.90
9965;DHT22;5023;53.554;9.964;2022-07-11T20:04:15;18.80;99.90
9965;DHT22;5023;53.554;9.964;2022-07-11T20:09:32;18.70;99.90
9965;DHT22;5023;53.554;9.964;2022-07-11T20:15:10;18.60;99.90
9965;DHT22;5023;53.554;9.964;2022-07-11T20:20:50;18.40;99.90
9965;DHT22;5023;53.554;9.964;2022-07-11T20:26:17;18.30;99.90
9965;DHT22;5023;53.554;9.964;2022-07-11T20:31:37;18.30;99.90
9965;DHT22;5023;53.554;9.964;2022-07-11T20:43:38;17.90;99.90
9965;DHT22;5023;53.554;9.964;2022-07-11T20:49:17;17.90;99.90
9965;DHT22;5023;53.554;9.964;2022-07-11T20:54:37;17.80;99.90
9965;DHT22;5023;53.554;9.964;2022-07-11T21:00:33;17.70;99.90
9965;DHT22;5023;53.554;9.964;2022-07-11T21:06:32;17.60;99.90
9965;DHT22;5023;53.554;9.964;2022-07-11T21:11:57;17.50;99.90
9965;DHT22;5023;53.554;9.964;2022-07-11T21:17:47;17.60;99.90
9965;DHT22;5023;53.554;9.964;2022-07-11T21:35:34;17.60;99.90
9965;DHT22;5023;53.554;9.964;2022-07-11T21:40:50;17.50;99.90
9965;DHT22;5023;53.554;9.964;2022-07-11T21:46:08;17.40;99.90
9965;DHT22;5023;53.554;9.964;2022-07-11T21:52:04;17.40;99.90
9965;DHT22;5023;53.554;9.964;2022-07-11T21:57:20;17.40;99.90
9965;DHT22;5023;53.554;9.964;2022-07-11T22:02:31;17.40;99.90
9965;DHT22;5023;53.554;9.964;2022-07-11T22:07:37;17.40;99.90
9965;DHT22;5023;53.554;9.964;2022-07-11T22:12:57;17.30;99.90
9965;DHT22;5023;53.554;9.964;2022-07-11T22:18:00;17.10;99.90
9965;DHT22;5023;53.554;9.964;2022-07-11T22:23:04;17.10;99.90
9965;DHT22;5023;53.554;9.964;2022-07-11T22:28:06;17.10;99.90
9965;DHT22;5023;53.554;9.964;2022-07-11T22:33:09;17.10;99.90
9965;DHT22;5023;53.554;9.964;2022-07-11T22:44:32;17.00;99.90
9965;DHT22;5023;53.554;9.964;2022-07-11T22:49:40;17.00;99.90
9965;DHT22;5023;53.554;9.964;2022-07-11T22:54:46;17.00;99.90
9965;DHT22;5023;53.554;9.964;2022-07-11T23:00:25;16.90;99.90
9965;DHT22;5023;53.554;9.964;2022-07-11T23:05:29;16.90;99.90
9965;DHT22;5023;53.554;9.964;2022-07-11T23:10:38;16.80;99.90
9965;DHT22;5023;53.554;9.964;2022-07-11T23:43:37;16.60;99.90
